Airfield :
LOGIN :

Register | Disclaimer

   EN    FR    IT 

 










Legend :    VFR   Marginal VFR   IFR   Intensive IFR   Very Intensive IFR
Visi :
Ceiling :
>= 8 km
>= 3000ft
5 to 8 km
1000 to 3000 ft
1500m to 5 km
500 to 1000 ft
800 to 1500m
200 to 500 ft
< 800m
< 200 ft
Symbols :   Thunderstorms  Fog  Heavy snow  Heavy precipitations  Wind > 20 kt
SIGMETs :     Misc.  Thunderstorms  Icing  Turbulence  Mountain Waves  Volcanic Ashes






- Airport Elevation : 13 ft
- IATA code : LYX


EGMD - Lydd

CURRENT METAR :
  • 261120Z AUTO 00000KT 9999 FEW038/// 03/02 Q1019

EXPIRED METARs :
  • 261050Z AUTO 04002KT 9999 NCD 03/02 Q1019
  • 261020Z AUTO 00000KT 070V160 9999 NCD 02/02 Q1019
  • 260950Z AUTO 17002KT 9999 NCD 01/00 Q1019
  • 260920Z AUTO 00000KT 070V130 9999 NCD 01/M00 Q1019
  • 260850Z AUTO 03002KT 9999 NCD 00/M00 Q1019

TAF TAF EGMD
Valid from the 26 at 12:00 until the 26 at 21:00 UTC


261104Z 2612/2621 18005KT CAVOK
TEMPO 2612/2621 7000 RA BKN010
PROB40
TEMPO 2612/2621 4000 RADZ BKN005
ATIS : +44 1797 322 422



MET'MAP, your aeronautical weather chart ! - Copyright ORBIFLY December 2007 - Disclaimer

ORBIFLY MET'MAP TEAM :

Programming & Development : Alexandra Zaïnal
Concept & original design : Baudouin d'Aumeries
Assistance for programming : Marc-Olivier Méhu
Technical & hardware support : Manuel Goepfert

Contact : metmap@orbifly.com




SOURCES & CREDITS :

   NOAA